Time;durP1;ratioP1;P1;durP2;ratioP2;P2;SDS_P1;SDS_P2;PMS_P1;PMS_P2;Temp;Humidity;BMP_temperature;BMP_pressure;BME280_temperature;BME280_humidity;BME280_pressure;Samples;Min_cycle;Max_cycle;Signal;HPM_P1;HPM_P2
2023/09/29 00:01:02;;;;;;;12.48;4.72;;;;;;;18.62;100.00;101461.28;5222916;28;20340;-72
2023/09/29 00:03:34;;;;;;;11.73;4.82;;;;;;;18.62;100.00;101460.44;5218716;28;20030;-73
2023/09/29 00:06:07;;;;;;;12.75;4.32;;;;;;;18.62;100.00;101461.28;5221352;28;20531;-71
2023/09/29 00:08:39;;;;;;;9.65;4.03;;;;;;;18.56;100.00;101459.31;5219115;28;20099;-72
2023/09/29 00:11:14;;;;;;;14.10;4.85;;;;;;;18.59;100.00;101458.13;5221799;28;20083;-73
2023/09/29 00:13:45;;;;;;;10.50;4.30;;;;;;;18.54;100.00;101461.28;5221017;28;20423;-72
2023/09/29 00:16:17;;;;;;;10.20;4.50;;;;;;;18.59;100.00;101453.63;5220447;28;20049;-72
2023/09/29 00:18:49;;;;;;;9.77;4.30;;;;;;;18.56;100.00;101451.34;5218305;28;20522;-72
2023/09/29 00:21:21;;;;;;;8.98;4.55;;;;;;;18.61;100.00;101453.50;5219539;28;20045;-72
2023/09/29 00:23:53;;;;;;;8.50;3.83;;;;;;;18.63;100.00;101459.44;5221561;28;20026;-72
2023/09/29 00:26:25;;;;;;;14.97;4.73;;;;;;;18.67;100.00;101458.94;5221193;28;20030;-72
2023/09/29 00:28:59;;;;;;;10.75;4.85;;;;;;;18.67;100.00;101456.28;5220421;28;20052;-73
2023/09/29 00:31:32;;;;;;;11.50;4.50;;;;;;;18.68;100.00;101457.13;5220070;28;20530;-73
2023/09/29 00:34:03;;;;;;;;;;;;;;;19.47;100.00;101455.41;5220754;28;20021;-73
2023/09/29 00:36:35;;;;;;;8.68;3.78;;;;;;;18.77;100.00;101452.66;5219190;28;20491;-72
2023/09/29 00:39:10;;;;;;;11.23;3.93;;;;;;;18.80;100.00;101452.31;5220405;28;20021;-72
2023/09/29 00:41:42;;;;;;;7.30;4.30;;;;;;;18.77;100.00;101456.13;5221258;28;20044;-73
2023/09/29 00:44:14;;;;;;;11.05;4.10;;;;;;;18.80;100.00;101455.81;5217560;28;20387;-72
2023/09/29 00:46:46;;;;;;;10.63;4.32;;;;;;;18.77;100.00;101455.31;5221695;28;20034;-73
2023/09/29 00:49:19;;;;;;;8.05;3.97;;;;;;;18.76;100.00;101451.00;5218911;28;20090;-72
2023/09/29 00:51:52;;;;;;;9.32;4.30;;;;;;;18.71;100.00;101441.72;5218519;28;20034;-72
2023/09/29 00:54:24;;;;;;;6.18;3.78;;;;;;;18.77;100.00;101439.38;5220290;28;20099;-72
2023/09/29 00:56:59;;;;;;;7.15;3.85;;;;;;;18.78;100.00;101444.50;5220876;28;20342;-71
2023/09/29 00:59:34;;;;;;;9.23;3.55;;;;;;;18.78;100.00;101436.56;5218677;28;20033;-74
2023/09/29 01:02:09;;;;;;;8.65;4.05;;;;;;;18.81;100.00;101438.06;5220721;28;20044;-72
2023/09/29 01:04:44;;;;;;;7.15;3.70;;;;;;;18.81;100.00;101440.72;5220015;28;20025;-72
2023/09/29 01:07:16;;;;;;;5.90;3.35;;;;;;;18.81;100.00;101433.56;5219496;28;20017;-73
2023/09/29 01:09:48;;;;;;;6.05;3.38;;;;;;;18.83;100.00;101433.41;5220889;28;20037;-73
2023/09/29 01:12:29;;;;;;;8.32;3.65;;;;;;;18.99;100.00;101432.53;5220364;28;20037;-73
2023/09/29 01:15:01;;;;;;;8.23;3.72;;;;;;;18.82;100.00;101427.25;5220293;28;20029;-72
2023/09/29 01:17:33;;;;;;;9.77;3.55;;;;;;;18.86;100.00;101419.78;5218612;28;20037;-73
2023/09/29 01:20:13;;;;;;;8.65;4.10;;;;;;;18.84;100.00;101416.47;5219151;28;20087;-72
2023/09/29 01:22:46;;;;;;;5.72;3.08;;;;;;;18.83;100.00;101415.66;5217830;28;20050;-72
2023/09/29 01:25:18;;;;;;;8.23;3.30;;;;;;;18.82;100.00;101415.81;5218968;28;20033;-72
2023/09/29 01:27:50;;;;;;;7.65;3.25;;;;;;;18.80;100.00;101407.19;5219826;28;20060;-72
2023/09/29 01:30:24;;;;;;;6.77;3.70;;;;;;;18.87;100.00;101408.19;5218913;28;20047;-72
2023/09/29 01:32:57;;;;;;;7.97;2.90;;;;;;;18.80;100.00;101402.72;5220869;28;20028;-72
2023/09/29 01:35:29;;;;;;;7.70;3.33;;;;;;;18.84;100.00;101406.69;5219905;28;20045;-72
2023/09/29 01:38:00;;;;;;;8.75;3.92;;;;;;;18.85;100.00;101399.53;5219653;28;20036;-72
2023/09/29 01:40:33;;;;;;;6.35;3.00;;;;;;;18.87;100.00;101394.91;5222069;28;20041;-72
2023/09/29 01:43:05;;;;;;;5.50;3.28;;;;;;;18.88;100.00;101389.41;5223156;28;20033;-72
2023/09/29 01:45:38;;;;;;;6.22;3.00;;;;;;;18.91;100.00;101390.91;5223304;28;20040;-72
2023/09/29 01:48:11;;;;;;;;;;;;;;;19.67;100.00;101398.19;5223203;28;20030;-72
2023/09/29 01:50:43;;;;;;;7.85;3.35;;;;;;;19.03;100.00;101397.50;5224835;28;19916;-73
2023/09/29 01:53:15;;;;;;;7.07;2.88;;;;;;;19.00;100.00;101386.38;5222382;28;20520;-72
2023/09/29 01:55:47;;;;;;;5.05;2.85;;;;;;;18.99;100.00;101388.22;5223062;28;20041;-72
2023/09/29 01:58:19;;;;;;;8.20;3.17;;;;;;;19.00;100.00;101389.88;5221213;28;20034;-72
2023/09/29 02:00:51;;;;;;;5.93;3.13;;;;;;;18.99;100.00;101382.91;5223216;28;20131;-72
2023/09/29 02:03:24;;;;;;;7.05;2.67;;;;;;;18.99;100.00;101379.44;5222777;28;20040;-73
2023/09/29 02:05:55;;;;;;;5.43;3.13;;;;;;;18.98;100.00;101359.16;5220918;28;20029;-74
2023/09/29 02:08:27;;;;;;;4.00;2.57;;;;;;;19.00;100.00;101373.94;5222281;28;20060;-72
2023/09/29 02:11:00;;;;;;;5.97;3.15;;;;;;;18.98;100.00;101369.78;5222770;28;20509;-74
2023/09/29 02:13:32;;;;;;;6.82;2.50;;;;;;;18.96;100.00;101370.78;5223139;28;20036;-73
2023/09/29 02:16:14;;;;;;;6.38;2.60;;;;;;;19.14;100.00;101378.53;5221282;28;20026;-73
2023/09/29 02:18:46;;;;;;;5.20;2.72;;;;;;;18.99;100.00;101376.78;5222070;28;20030;-74
2023/09/29 02:21:21;;;;;;;7.53;2.33;;;;;;;19.01;100.00;101372.09;5223475;28;20036;-72
2023/09/29 02:23:55;;;;;;;6.50;2.28;;;;;;;18.96;100.00;101368.13;5224647;28;20046;-72
2023/09/29 02:26:29;;;;;;;5.82;2.88;;;;;;;18.99;100.00;101356.34;5222453;28;20422;-72
2023/09/29 02:29:01;;;;;;;3.97;2.33;;;;;;;18.99;100.00;101364.31;5221892;28;20380;-72
2023/09/29 02:31:33;;;;;;;5.22;2.50;;;;;;;19.01;100.00;101361.47;5221964;28;20041;-72
2023/09/29 02:34:06;;;;;;;5.28;2.72;;;;;;;19.02;100.00;101357.84;5223427;28;20017;-72
2023/09/29 02:36:40;;;;;;;6.45;2.67;;;;;;;18.99;100.00;101358.19;5221767;28;20040;-72
2023/09/29 02:39:11;;;;;;;5.38;2.63;;;;;;;19.00;100.00;101350.03;5221249;28;20040;-72
2023/09/29 02:41:44;;;;;;;4.45;2.75;;;;;;;19.04;100.00;101343.38;5222908;28;20246;-72
2023/09/29 02:44:16;;;;;;;4.82;2.58;;;;;;;19.06;100.00;101344.03;5221739;28;20032;-73
2023/09/29 02:46:48;;;;;;;4.03;2.35;;;;;;;19.03;100.00;101339.06;5221610;28;20402;-73
2023/09/29 02:49:20;;;;;;;4.83;2.50;;;;;;;19.07;100.00;101329.75;5220757;28;20045;-72
2023/09/29 02:51:52;;;;;;;5.53;2.33;;;;;;;19.11;100.00;101327.56;5221519;28;20033;-73
2023/09/29 02:54:25;;;;;;;5.78;2.70;;;;;;;19.12;100.00;101335.34;5221039;28;20037;-72
2023/09/29 02:56:56;;;;;;;5.22;2.10;;;;;;;19.11;100.00;101323.09;5219838;28;20037;-74
2023/09/29 02:59:33;;;;;;;5.18;2.25;;;;;;;19.20;100.00;101330.00;5224054;28;20048;-72
2023/09/29 03:02:05;;;;;;;3.65;2.30;;;;;;;19.09;100.00;101314.47;5219793;28;20041;-73
2023/09/29 03:04:39;;;;;;;4.68;2.40;;;;;;;19.13;100.00;101310.47;5222590;28;20684;-72
2023/09/29 03:07:13;;;;;;;5.60;2.33;;;;;;;19.11;100.00;101315.13;5222272;28;20443;-73
2023/09/29 03:09:45;;;;;;;8.00;2.75;;;;;;;19.11;100.00;101308.97;5222450;28;20041;-72
2023/09/29 03:12:17;;;;;;;5.53;2.35;;;;;;;19.17;100.00;101309.13;5221864;28;20767;-73
2023/09/29 03:14:49;;;;;;;4.88;2.63;;;;;;;19.18;100.00;101320.56;5221291;28;20030;-72
2023/09/29 03:17:21;;;;;;;4.53;2.40;;;;;;;19.16;100.00;101317.25;5220651;28;20026;-73
2023/09/29 03:19:52;;;;;;;5.70;2.50;;;;;;;19.18;100.00;101316.09;5220359;28;20033;-72
2023/09/29 03:22:24;;;;;;;6.53;2.33;;;;;;;19.21;100.00;101314.91;5220926;28;20047;-72
2023/09/29 03:24:56;;;;;;;6.20;2.60;;;;;;;19.22;100.00;101305.94;5221197;28;20084;-72
2023/09/29 03:27:28;;;;;;;3.65;2.10;;;;;;;19.23;100.00;101296.13;5221540;28;20037;-73
2023/09/29 03:30:00;;;;;;;5.97;2.78;;;;;;;19.23;100.00;101293.47;5218996;28;20045;-73
2023/09/29 03:32:32;;;;;;;5.40;2.27;;;;;;;19.26;100.00;101287.81;5221216;28;20040;-73
2023/09/29 03:35:05;;;;;;;4.28;2.05;;;;;;;19.22;100.00;101286.53;5220665;28;20392;-73
2023/09/29 03:37:38;;;;;;;6.57;2.20;;;;;;;19.26;100.00;101285.97;5222701;28;20426;-73
2023/09/29 03:40:10;;;;;;;6.07;2.38;;;;;;;19.24;100.00;101281.84;5221821;28;20025;-72
2023/09/29 03:42:42;;;;;;;6.50;2.40;;;;;;;19.26;100.00;101269.22;5226720;28;20511;-72
2023/09/29 03:45:14;;;;;;;4.07;2.22;;;;;;;19.26;100.00;101258.59;5222096;28;20035;-72
2023/09/29 03:47:46;;;;;;;4.25;2.25;;;;;;;19.25;100.00;101259.59;5218495;28;20045;-73
2023/09/29 03:50:19;;;;;;;6.10;2.33;;;;;;;19.19;100.00;101253.97;5222491;28;20537;-72
2023/09/29 03:52:51;;;;;;;4.55;2.40;;;;;;;19.24;100.00;101249.97;5221603;28;20080;-73
2023/09/29 03:55:23;;;;;;;4.90;2.67;;;;;;;19.28;100.00;101254.78;5221191;28;20036;-72
2023/09/29 03:57:55;;;;;;;3.88;2.47;;;;;;;19.27;100.00;101254.94;5219837;28;20503;-73
2023/09/29 04:00:28;;;;;;;3.55;1.92;;;;;;;19.26;100.00;101248.78;5219189;28;20033;-73
2023/09/29 04:03:00;;;;;;;4.53;2.53;;;;;;;19.24;100.00;101253.44;5219894;28;20037;-73
2023/09/29 04:05:32;;;;;;;4.38;2.33;;;;;;;19.26;100.00;101243.47;5221143;28;20030;-72
2023/09/29 04:08:05;;;;;;;4.33;2.30;;;;;;;19.27;100.00;101241.66;5221945;28;20029;-72
2023/09/29 04:10:37;;;;;;;6.23;2.43;;;;;;;19.33;100.00;101235.63;5219391;28;20769;-72
2023/09/29 04:13:08;;;;;;;4.40;2.33;;;;;;;19.28;100.00;101238.81;5217979;28;20299;-73
2023/09/29 04:15:40;;;;;;;4.30;2.47;;;;;;;19.30;100.00;101238.63;5221522;28;20041;-72
2023/09/29 04:18:12;;;;;;;3.58;2.20;;;;;;;19.31;100.00;101250.91;5221542;28;20025;-72
2023/09/29 04:20:44;;;;;;;4.85;2.53;;;;;;;19.28;100.00;101244.16;5221939;28;20037;-74
2023/09/29 04:23:16;;;;;;;6.10;2.00;;;;;;;19.30;100.00;101246.59;5219147;28;20533;-73
2023/09/29 04:25:48;;;;;;;5.55;3.03;;;;;;;19.29;100.00;101243.13;5219080;28;20037;-73
2023/09/29 04:28:20;;;;;;;3.88;2.22;;;;;;;19.32;100.00;101228.66;5218584;28;20063;-72
2023/09/29 04:30:52;;;;;;;4.65;2.42;;;;;;;19.32;100.00;101223.34;5221493;28;20053;-73
2023/09/29 04:33:24;;;;;;;3.90;2.40;;;;;;;19.34;100.00;101230.13;5222053;28;20513;-73
2023/09/29 04:35:55;;;;;;;4.15;2.13;;;;;;;19.34;100.00;101232.78;5219235;28;20025;-73
2023/09/29 04:38:27;;;;;;;3.97;1.98;;;;;;;19.39;100.00;101229.59;5219169;28;20037;-72
2023/09/29 04:40:59;;;;;;;4.55;2.35;;;;;;;19.37;100.00;101226.31;5220061;28;20034;-74
2023/09/29 04:43:31;;;;;;;5.68;2.85;;;;;;;19.40;100.00;101220.63;5218440;28;20059;-73
2023/09/29 04:46:03;;;;;;;3.90;2.17;;;;;;;19.44;100.00;101217.44;5220052;28;20038;-73
2023/09/29 04:48:35;;;;;;;4.07;2.17;;;;;;;19.43;100.00;101222.91;5219513;28;20038;-72
2023/09/29 04:51:07;;;;;;;4.38;2.40;;;;;;;19.42;100.00;101224.75;5221358;28;20250;-72
2023/09/29 04:53:39;;;;;;;6.28;2.20;;;;;;;19.46;100.00;101233.19;5220523;28;20525;-73
2023/09/29 04:56:11;;;;;;;4.17;2.07;;;;;;;19.49;100.00;101232.00;5217326;28;20037;-72
2023/09/29 04:58:43;;;;;;;3.53;2.10;;;;;;;19.51;100.00;101230.84;5218970;28;20044;-74
2023/09/29 05:01:19;;;;;;;6.38;2.63;;;;;;;19.57;100.00;101230.09;5220028;28;20454;-73
2023/09/29 05:03:51;;;;;;;5.13;2.40;;;;;;;19.46;100.00;101230.53;5217442;28;20479;-72
2023/09/29 05:06:24;;;;;;;5.13;2.17;;;;;;;19.54;100.00;101226.97;5220291;28;20403;-72
2023/09/29 05:08:56;;;;;;;;;;;;;;;20.28;100.00;101222.59;5220142;28;20040;-72
2023/09/29 05:11:28;;;;;;;4.05;2.05;;;;;;;19.52;100.00;101213.88;5218679;28;19921;-73
2023/09/29 05:14:00;;;;;;;5.07;2.67;;;;;;;19.58;100.00;101218.47;5219468;28;20832;-73
2023/09/29 05:16:31;;;;;;;4.28;2.20;;;;;;;19.62;100.00;101211.84;5222768;28;20045;-72
2023/09/29 05:19:03;;;;;;;4.25;2.03;;;;;;;19.62;100.00;101201.19;5224410;28;20032;-72
2023/09/29 05:21:36;;;;;;;3.00;1.97;;;;;;;19.63;100.00;101205.50;5224241;28;20042;-72
2023/09/29 05:24:08;;;;;;;3.28;2.20;;;;;;;19.63;100.00;101194.88;5221346;28;20026;-72
2023/09/29 05:26:40;;;;;;;5.15;2.05;;;;;;;19.68;100.00;101197.81;5224022;28;20305;-73
2023/09/29 05:29:12;;;;;;;3.40;1.90;;;;;;;19.67;100.00;101200.66;5222627;28;20049;-73
2023/09/29 05:31:45;;;;;;;4.00;2.40;;;;;;;19.72;100.00;101200.94;5221984;28;20488;-73
2023/09/29 05:34:17;;;;;;;3.92;2.10;;;;;;;19.68;100.00;101200.47;5222426;28;20455;-74
2023/09/29 05:36:49;;;;;;;4.50;2.27;;;;;;;19.69;100.00;101194.13;5221901;28;20033;-73
2023/09/29 05:39:21;;;;;;;4.30;2.50;;;;;;;19.71;100.00;101201.94;5221876;28;20390;-72
2023/09/29 05:41:53;;;;;;;4.43;2.20;;;;;;;19.71;100.00;101193.16;5222711;28;20440;-72
2023/09/29 05:44:26;;;;;;;5.57;2.27;;;;;;;19.77;100.00;101201.19;5221291;28;20376;-72
2023/09/29 05:46:58;;;;;;;5.05;2.00;;;;;;;19.75;100.00;101191.78;5221943;28;20056;-72
2023/09/29 05:49:32;;;;;;;3.95;2.03;;;;;;;19.79;100.00;101195.72;5220116;28;20025;-72
2023/09/29 05:52:04;;;;;;;3.53;2.20;;;;;;;19.79;100.00;101201.84;5219797;28;20064;-72
2023/09/29 05:54:36;;;;;;;4.20;2.67;;;;;;;19.87;100.00;101203.59;5224295;28;20021;-72
2023/09/29 05:57:07;;;;;;;4.07;2.70;;;;;;;19.92;100.00;101204.69;5220516;28;20475;-72
2023/09/29 05:59:40;;;;;;;5.40;3.10;;;;;;;19.93;100.00;101214.34;5220118;28;20420;-72
2023/09/29 06:02:11;;;;;;;3.43;2.00;;;;;;;19.97;100.00;101198.84;5219756;28;20029;-72
2023/09/29 06:04:43;;;;;;;4.40;2.10;;;;;;;19.96;100.00;101205.16;5216351;28;20307;-73
2023/09/29 06:07:15;;;;;;;4.33;2.40;;;;;;;19.99;100.00;101207.44;5220298;28;20599;-73
2023/09/29 06:09:47;;;;;;;3.77;1.70;;;;;;;20.00;100.00;101198.50;5217941;28;20561;-73
2023/09/29 06:12:19;;;;;;;5.50;2.20;;;;;;;20.03;100.00;101219.38;5221354;28;20426;-73
2023/09/29 06:14:51;;;;;;;5.90;2.20;;;;;;;20.08;100.00;101226.81;5222322;28;20035;-73
2023/09/29 06:17:23;;;;;;;3.93;1.77;;;;;;;20.06;100.00;101221.69;5226077;28;20048;-73
2023/09/29 06:19:55;;;;;;;3.50;1.80;;;;;;;20.15;100.00;101222.41;5224799;28;20036;-73
2023/09/29 06:22:27;;;;;;;4.50;1.80;;;;;;;20.16;100.00;101218.75;5226527;28;20026;-73
2023/09/29 06:24:59;;;;;;;3.33;1.80;;;;;;;20.24;100.00;101218.66;5222912;28;20075;-73
2023/09/29 06:27:31;;;;;;;4.87;2.30;;;;;;;20.32;100.00;101207.09;5224089;28;20025;-73
2023/09/29 06:30:03;;;;;;;5.47;1.90;;;;;;;20.33;100.00;101209.53;5226050;28;20058;-73
2023/09/29 06:32:35;;;;;;;6.60;1.90;;;;;;;20.36;100.00;101206.53;5224775;28;20056;-74
2023/09/29 06:35:08;;;;;;;3.20;1.90;;;;;;;20.43;100.00;101217.25;5226471;28;20033;-73
2023/09/29 06:37:40;;;;;;;4.47;2.08;;;;;;;20.47;100.00;101218.53;5225063;28;20072;-74
2023/09/29 06:40:12;;;;;;;3.53;1.80;;;;;;;20.45;100.00;101215.22;5222912;28;20040;-73
2023/09/29 06:42:44;;;;;;;4.80;2.23;;;;;;;20.58;100.00;101218.09;5223931;28;20026;-72
2023/09/29 06:45:15;;;;;;;3.72;1.77;;;;;;;20.63;100.00;101226.34;5222439;28;20483;-73
2023/09/29 06:47:47;;;;;;;3.33;1.60;;;;;;;20.63;100.00;101234.31;5222649;28;20042;-73
2023/09/29 06:50:19;;;;;;;4.97;2.33;;;;;;;20.68;100.00;101232.94;5225084;28;20037;-73
2023/09/29 06:52:51;;;;;;;2.67;1.67;;;;;;;20.66;100.00;101233.13;5224790;28;20029;-74
2023/09/29 06:55:23;;;;;;;5.10;2.20;;;;;;;20.71;100.00;101233.38;5226621;28;20487;-73
2023/09/29 06:57:55;;;;;;;5.63;2.27;;;;;;;20.69;100.00;101226.63;5221990;28;20427;-74
2023/09/29 07:00:27;;;;;;;2.60;1.63;;;;;;;20.76;100.00;101233.66;5221837;28;20029;-73
2023/09/29 07:02:59;;;;;;;6.03;1.97;;;;;;;20.77;100.00;101232.66;5224198;28;20041;-73
2023/09/29 07:05:31;;;;;;;5.20;2.50;;;;;;;20.86;100.00;101241.34;5224481;28;20040;-73
2023/09/29 07:08:03;;;;;;;3.13;2.10;;;;;;;20.88;100.00;101236.66;5216089;28;20475;-74
2023/09/29 07:10:35;;;;;;;4.37;2.10;;;;;;;20.93;100.00;101246.75;5218229;28;20038;-73
2023/09/29 07:13:07;;;;;;;4.97;1.97;;;;;;;20.93;100.00;101254.72;5217807;28;20658;-73
2023/09/29 07:15:38;;;;;;;4.23;1.80;;;;;;;20.94;100.00;101240.41;5220337;28;20021;-73
2023/09/29 07:18:12;;;;;;;4.90;2.00;;;;;;;20.96;100.00;101238.38;5224957;28;20044;-74
2023/09/29 07:20:45;;;;;;;3.40;1.80;;;;;;;20.96;100.00;101236.53;5222279;28;20037;-73
2023/09/29 07:23:19;;;;;;;5.55;2.20;;;;;;;21.01;100.00;101236.78;5221915;28;20029;-73
2023/09/29 07:25:54;;;;;;;4.32;1.80;;;;;;;21.00;100.00;101237.81;5223201;28;20087;-73
2023/09/29 07:28:26;;;;;;;4.93;2.00;;;;;;;21.10;100.00;101248.13;5221158;28;20842;-73
2023/09/29 07:30:59;;;;;;;6.57;2.27;;;;;;;21.19;100.00;101247.00;5220624;28;20029;-74
2023/09/29 07:33:30;;;;;;;3.22;1.77;;;;;;;21.24;100.00;101254.44;5219214;28;20029;-73
2023/09/29 07:36:03;;;;;;;3.57;1.80;;;;;;;21.35;100.00;101240.63;5221835;28;20033;-73
2023/09/29 07:38:34;;;;;;;3.80;2.10;;;;;;;21.50;100.00;101245.88;5220372;28;20021;-73
2023/09/29 07:41:06;;;;;;;8.33;2.00;;;;;;;21.52;100.00;101250.03;5222462;28;20291;-73
2023/09/29 07:43:41;;;;;;;3.90;2.00;;;;;;;21.69;100.00;101252.41;5225474;28;20483;-73
2023/09/29 07:46:13;;;;;;;3.35;1.95;;;;;;;21.68;100.00;101253.44;5222089;28;20033;-74
2023/09/29 07:48:44;;;;;;;4.30;2.10;;;;;;;21.82;100.00;101249.81;5221690;28;20026;-74
2023/09/29 07:51:17;;;;;;;3.50;1.90;;;;;;;21.85;100.00;101262.78;5220280;28;20410;-74
2023/09/29 07:53:49;;;;;;;2.85;1.90;;;;;;;21.90;100.00;101255.03;5223631;28;20046;-73
2023/09/29 07:56:21;;;;;;;4.80;2.10;;;;;;;21.95;100.00;101260.59;5221057;28;20026;-74
2023/09/29 07:58:54;;;;;;;3.27;1.77;;;;;;;21.98;100.00;101259.41;5220933;28;20036;-73
2023/09/29 08:01:25;;;;;;;5.15;2.05;;;;;;;22.08;100.00;101255.34;5222478;28;20025;-75
2023/09/29 08:03:58;;;;;;;3.83;2.17;;;;;;;22.15;100.00;101266.09;5221249;28;20033;-73
2023/09/29 08:06:29;;;;;;;3.37;1.80;;;;;;;22.21;100.00;101267.97;5221195;28;20514;-74
2023/09/29 08:09:03;;;;;;;4.37;1.90;;;;;;;22.26;100.00;101270.06;5222271;28;20299;-73
2023/09/29 08:11:35;;;;;;;4.63;2.10;;;;;;;22.23;100.00;101273.13;5220566;28;20025;-73
2023/09/29 08:14:07;;;;;;;2.97;2.13;;;;;;;22.33;100.00;101276.25;5221428;28;20045;-74
2023/09/29 08:16:39;;;;;;;3.53;1.60;;;;;;;22.37;100.00;101282.84;5216437;28;20407;-74
2023/09/29 08:19:11;;;;;;;3.80;2.13;;;;;;;22.41;100.00;101284.09;5219352;28;20038;-74
2023/09/29 08:21:43;;;;;;;7.20;2.37;;;;;;;22.46;100.00;101292.34;5223212;28;20044;-74
2023/09/29 08:24:15;;;;;;;4.70;1.60;;;;;;;22.46;100.00;101292.34;5221919;28;20063;-74
2023/09/29 08:26:47;;;;;;;3.08;2.10;;;;;;;22.51;100.00;101299.78;5218894;28;20033;-74
2023/09/29 08:29:19;;;;;;;4.23;1.80;;;;;;;22.60;100.00;101303.91;5219914;28;20522;-74
2023/09/29 08:31:51;;;;;;;4.97;1.80;;;;;;;22.62;100.00;101301.06;5222345;28;20025;-74
2023/09/29 08:34:23;;;;;;;4.73;2.10;;;;;;;22.59;100.00;101310.28;5219917;28;20055;-74
2023/09/29 08:36:55;;;;;;;6.60;2.20;;;;;;;22.63;100.00;101313.38;5219491;28;20056;-74
2023/09/29 08:39:28;;;;;;;4.60;2.50;;;;;;;22.65;100.00;101317.50;5220657;28;20706;-74
2023/09/29 08:42:09;;;;;;;4.25;1.63;;;;;;;22.78;100.00;101327.44;5222465;28;20426;-73
2023/09/29 08:44:42;;;;;;;3.35;1.90;;;;;;;22.68;100.00;101314.44;5220059;28;20038;-74
2023/09/29 08:47:18;;;;;;;5.43;2.72;;;;;;;22.85;100.00;101325.63;5221182;28;20042;-73
2023/09/29 08:49:50;;;;;;;3.63;2.08;;;;;;;22.81;100.00;101325.19;5224692;28;20380;-74
2023/09/29 08:52:24;;;;;;;6.88;2.33;;;;;;;22.88;100.00;101327.91;5223558;28;20046;-74
2023/09/29 08:54:56;;;;;;;4.95;2.45;;;;;;;22.89;100.00;101332.22;5223579;28;20032;-74
2023/09/29 08:57:29;;;;;;;5.10;2.40;;;;;;;22.98;100.00;101327.53;5225827;28;20033;-74
2023/09/29 09:00:01;;;;;;;4.45;2.20;;;;;;;23.05;100.00;101333.72;5221128;28;20045;-74
2023/09/29 09:02:32;;;;;;;4.43;2.17;;;;;;;;;;5241942;28;20049;-74
2023/09/29 09:05:05;;;;;;;5.33;1.90;;;;;;;23.14;100.00;101327.16;5223236;28;20306;-74
2023/09/29 09:07:38;;;;;;;4.55;2.22;;;;;;;23.24;100.00;101337.50;5222406;28;20036;-74
2023/09/29 09:10:12;;;;;;;6.72;2.60;;;;;;;23.14;100.00;101339.72;5222715;28;20033;-74
2023/09/29 09:12:44;;;;;;;4.78;2.10;;;;;;;23.10;100.00;101335.78;5221988;28;20033;-74
2023/09/29 09:15:24;;;;;;;4.53;2.40;;;;;;;23.29;100.00;101346.53;5222806;28;20029;-74
2023/09/29 09:17:56;;;;;;;8.98;2.90;;;;;;;23.03;100.00;101338.44;5222013;28;20407;-74
2023/09/29 09:20:29;;;;;;;5.10;2.13;;;;;;;23.04;100.00;101348.94;5226622;28;20041;-74
2023/09/29 09:23:03;;;;;;;5.57;2.25;;;;;;;22.94;100.00;101351.16;5224932;28;20040;-74
2023/09/29 09:25:42;;;;;;;4.10;2.25;;;;;;;22.95;100.00;101350.13;5226593;28;20522;-74
2023/09/29 09:28:16;;;;;;;3.78;2.20;;;;;;;22.77;100.00;101357.84;5224327;28;20542;-74
2023/09/29 09:30:59;;;;;;;3.15;2.13;;;;;;;22.80;100.00;101354.75;5223352;28;20025;-74
2023/09/29 09:33:31;;;;;;;4.15;2.28;;;;;;;22.90;100.00;101360.56;5228062;28;20072;-74
2023/09/29 09:36:09;;;;;;;6.13;2.83;;;;;;;22.98;100.00;101363.09;5222819;28;20478;-74
2023/09/29 09:38:42;;;;;;;6.45;2.15;;;;;;;22.88;100.00;101357.28;5223634;28;20296;-74
2023/09/29 09:41:16;;;;;;;5.60;2.47;;;;;;;22.92;100.00;101365.72;5226216;28;20040;-74
2023/09/29 09:43:48;;;;;;;5.22;2.15;;;;;;;22.94;100.00;101366.38;5224429;28;20371;-74
2023/09/29 09:46:20;;;;;;;4.10;1.80;;;;;;;22.99;100.00;101369.25;5224052;28;20042;-74
2023/09/29 09:49:06;;;;;;;5.65;2.53;;;;;;;23.04;100.00;101373.00;5224980;28;20391;-74
2023/09/29 09:51:42;;;;;;;5.30;2.45;;;;;;;23.02;100.00;101376.88;5226273;28;20038;-74
2023/09/29 09:54:28;;;;;;;5.55;2.50;;;;;;;23.13;100.00;101378.97;5224036;28;20371;-74
2023/09/29 09:57:06;;;;;;;5.18;2.50;;;;;;;22.97;100.00;101382.84;5223955;28;20037;-74
2023/09/29 09:59:41;;;;;;;5.20;2.45;;;;;;;23.02;100.00;101383.03;5224915;28;20053;-74
2023/09/29 10:02:13;;;;;;;8.35;2.25;;;;;;;23.03;100.00;101390.06;5225066;28;20033;-74
2023/09/29 10:04:47;;;;;;;4.13;2.40;;;;;;;23.05;100.00;101401.38;5224959;28;20034;-74
2023/09/29 10:07:21;;;;;;;4.85;2.33;;;;;;;23.02;100.00;101393.75;5221526;28;20038;-74
2023/09/29 10:09:52;;;;;;;7.40;2.55;;;;;;;23.06;100.00;101402.19;5224291;28;20037;-74
2023/09/29 10:12:28;;;;;;;3.37;2.20;;;;;;;23.17;100.00;101401.63;5223945;28;20060;-74
2023/09/29 10:15:03;;;;;;;6.32;2.65;;;;;;;22.99;100.00;101404.81;5221738;28;20037;-74
2023/09/29 10:17:41;;;;;;;6.30;2.30;;;;;;;23.05;100.00;101400.53;5225555;28;20053;-74
2023/09/29 10:20:24;;;;;;;4.90;2.10;;;;;;;23.14;100.00;101402.00;5223752;28;20040;-74
2023/09/29 10:23:07;;;;;;;4.93;2.70;;;;;;;23.13;100.00;101396.88;5226993;28;20034;-74
2023/09/29 10:25:41;;;;;;;;;;;;;;;23.75;100.00;101393.16;5225762;28;20037;-73
2023/09/29 10:28:13;;;;;;;4.45;2.30;;;;;;;23.08;100.00;101407.34;5223561;28;19929;-74
2023/09/29 10:30:45;;;;;;;5.63;2.57;;;;;;;23.06;100.00;101405.69;5226669;28;20029;-74
2023/09/29 10:33:17;;;;;;;6.57;2.90;;;;;;;22.98;100.00;101405.84;5226648;28;20296;-74
2023/09/29 10:35:49;;;;;;;5.90;2.57;;;;;;;23.05;100.00;101408.56;5224955;28;20033;-73
2023/09/29 10:38:24;;;;;;;6.30;2.90;;;;;;;23.15;100.00;101411.69;5223434;28;20048;-73
2023/09/29 10:40:58;;;;;;;4.55;2.08;;;;;;;23.01;100.00;101407.31;5226919;28;20056;-73
2023/09/29 10:43:34;;;;;;;4.85;2.63;;;;;;;22.98;100.00;101419.22;5222815;28;20033;-73
2023/09/29 10:46:09;;;;;;;4.40;2.05;;;;;;;22.99;100.00;101422.72;5225761;28;20402;-74
2023/09/29 10:48:52;;;;;;;6.03;2.53;;;;;;;23.12;100.00;101424.63;5222366;28;20033;-73
2023/09/29 10:51:31;;;;;;;5.70;2.63;;;;;;;23.03;100.00;101419.47;5224335;28;20042;-73
2023/09/29 10:54:07;;;;;;;6.43;2.33;;;;;;;22.93;100.00;101420.84;5223668;28;20036;-74
2023/09/29 10:56:39;;;;;;;4.40;2.40;;;;;;;22.92;100.00;101436.06;5223623;28;20036;-74
2023/09/29 10:59:11;;;;;;;4.25;2.20;;;;;;;22.95;100.00;101442.84;5223199;28;20030;-73
2023/09/29 11:01:44;;;;;;;6.40;2.42;;;;;;;22.93;100.00;101431.53;5223461;28;20487;-74
2023/09/29 11:04:16;;;;;;;4.03;2.00;;;;;;;23.22;100.00;101436.63;5222630;28;20067;-73
2023/09/29 11:06:51;;;;;;;3.67;2.05;;;;;;;23.35;100.00;101441.19;5225587;28;21027;-74
2023/09/29 11:09:28;;;;;;;2.97;1.75;;;;;;;23.43;100.00;101443.69;5225522;28;20033;-74
2023/09/29 11:12:00;;;;;;;3.90;1.88;;;;;;;23.45;100.00;101430.94;5225110;28;20025;-73
2023/09/29 11:14:37;;;;;;;6.32;2.38;;;;;;;23.69;100.00;101442.97;5222565;28;20590;-74
2023/09/29 11:17:10;;;;;;;4.13;2.00;;;;;;;23.58;100.00;101451.53;5225742;28;20033;-74
2023/09/29 11:19:54;;;;;;;3.35;1.52;;;;;;;23.74;100.00;101447.69;5223470;28;20033;-73
2023/09/29 11:22:26;;;;;;;3.97;1.80;;;;;;;23.44;100.00;101448.00;5223479;28;20037;-74
2023/09/29 11:25:00;;;;;;;5.15;1.90;;;;;;;23.34;100.00;101439.53;5211627;28;20476;-74
2023/09/29 11:27:32;;;;;;;4.57;1.80;;;;;;;23.35;100.00;101449.19;5223870;28;20040;-74
2023/09/29 11:30:06;;;;;;;5.60;2.40;;;;;;;23.15;100.00;101454.47;5220631;28;20503;-73
2023/09/29 11:32:38;;;;;;;5.47;1.80;;;;;;;23.08;100.00;101461.63;5223040;28;20288;-73
2023/09/29 11:35:13;;;;;;;4.10;1.87;;;;;;;23.10;100.00;101469.44;5225066;28;20032;-73
2023/09/29 11:37:45;;;;;;;3.65;1.88;;;;;;;23.02;100.00;101471.25;5223743;28;20288;-75
2023/09/29 11:40:17;;;;;;;3.08;1.70;;;;;;;23.05;100.00;101483.41;5220751;28;20052;-74
2023/09/29 11:42:49;;;;;;;2.75;1.50;;;;;;;22.98;100.00;101472.66;5222741;28;20216;-74
2023/09/29 11:45:21;;;;;;;3.63;1.67;;;;;;;23.12;100.00;101480.75;5221677;28;20042;-74